sensor_id;sensor_type;location;lat;lon;timestamp;P1;durP1;ratioP1;P2;durP2;ratioP2
42714;SDS011;28351;51.480;5.706;2023-02-22T00:00:14;43.75;;;15.02;;
42714;SDS011;28351;51.480;5.706;2023-02-22T00:02:51;46.13;;;14.80;;
42714;SDS011;28351;51.480;5.706;2023-02-22T00:05:23;49.20;;;16.52;;
42714;SDS011;28351;51.480;5.706;2023-02-22T00:07:50;45.33;;;16.33;;
42714;SDS011;28351;51.480;5.706;2023-02-22T00:10:16;47.28;;;15.93;;
42714;SDS011;28351;51.480;5.706;2023-02-22T00:12:52;45.33;;;16.98;;
42714;SDS011;28351;51.480;5.706;2023-02-22T00:15:20;48.17;;;16.33;;
42714;SDS011;28351;51.480;5.706;2023-02-22T00:17:47;52.53;;;16.80;;
42714;SDS011;28351;51.480;5.706;2023-02-22T00:20:13;49.30;;;17.48;;
42714;SDS011;28351;51.480;5.706;2023-02-22T00:22:42;48.80;;;17.60;;
42714;SDS011;28351;51.480;5.706;2023-02-22T00:25:11;51.25;;;16.25;;
42714;SDS011;28351;51.480;5.706;2023-02-22T00:27:41;51.72;;;17.27;;
42714;SDS011;28351;51.480;5.706;2023-02-22T00:30:08;52.10;;;17.95;;
42714;SDS011;28351;51.480;5.706;2023-02-22T00:32:38;54.92;;;18.58;;
42714;SDS011;28351;51.480;5.706;2023-02-22T00:35:04;53.60;;;18.98;;
42714;SDS011;28351;51.480;5.706;2023-02-22T00:37:32;59.08;;;18.15;;
42714;SDS011;28351;51.480;5.706;2023-02-22T00:39:59;55.58;;;18.77;;
42714;SDS011;28351;51.480;5.706;2023-02-22T00:42:25;52.17;;;17.98;;
42714;SDS011;28351;51.480;5.706;2023-02-22T00:44:51;58.63;;;17.60;;
42714;SDS011;28351;51.480;5.706;2023-02-22T00:47:16;53.22;;;19.30;;
42714;SDS011;28351;51.480;5.706;2023-02-22T00:49:51;56.80;;;18.90;;
42714;SDS011;28351;51.480;5.706;2023-02-22T00:52:16;57.83;;;18.65;;
42714;SDS011;28351;51.480;5.706;2023-02-22T00:54:42;54.60;;;19.55;;
42714;SDS011;28351;51.480;5.706;2023-02-22T00:57:07;58.72;;;19.80;;
42714;SDS011;28351;51.480;5.706;2023-02-22T00:59:33;58.05;;;18.58;;
42714;SDS011;28351;51.480;5.706;2023-02-22T01:01:59;66.18;;;19.67;;
42714;SDS011;28351;51.480;5.706;2023-02-22T01:04:27;56.38;;;18.95;;
42714;SDS011;28351;51.480;5.706;2023-02-22T01:06:52;60.33;;;19.85;;
42714;SDS011;28351;51.480;5.706;2023-02-22T01:09:19;53.92;;;18.42;;
42714;SDS011;28351;51.480;5.706;2023-02-22T01:11:45;55.67;;;18.67;;
42714;SDS011;28351;51.480;5.706;2023-02-22T01:14:11;60.00;;;19.73;;
42714;SDS011;28351;51.480;5.706;2023-02-22T01:16:37;63.85;;;21.42;;
42714;SDS011;28351;51.480;5.706;2023-02-22T01:19:02;66.20;;;20.45;;
42714;SDS011;28351;51.480;5.706;2023-02-22T01:21:30;66.68;;;20.95;;
42714;SDS011;28351;51.480;5.706;2023-02-22T01:23:56;64.88;;;21.38;;
42714;SDS011;28351;51.480;5.706;2023-02-22T01:26:21;67.13;;;19.48;;
42714;SDS011;28351;51.480;5.706;2023-02-22T01:28:47;65.60;;;20.48;;
42714;SDS011;28351;51.480;5.706;2023-02-22T01:31:12;65.50;;;20.40;;
42714;SDS011;28351;51.480;5.706;2023-02-22T01:33:39;69.32;;;20.60;;
42714;SDS011;28351;51.480;5.706;2023-02-22T01:36:05;66.07;;;19.55;;
42714;SDS011;28351;51.480;5.706;2023-02-22T01:38:35;72.00;;;22.58;;
42714;SDS011;28351;51.480;5.706;2023-02-22T01:41:02;74.57;;;21.85;;
42714;SDS011;28351;51.480;5.706;2023-02-22T01:43:30;69.68;;;21.45;;
42714;SDS011;28351;51.480;5.706;2023-02-22T01:46:04;72.77;;;22.73;;
42714;SDS011;28351;51.480;5.706;2023-02-22T01:48:44;65.05;;;20.27;;
42714;SDS011;28351;51.480;5.706;2023-02-22T01:51:47;65.60;;;21.45;;
42714;SDS011;28351;51.480;5.706;2023-02-22T01:54:12;75.28;;;20.95;;
42714;SDS011;28351;51.480;5.706;2023-02-22T01:56:44;66.65;;;19.00;;
42714;SDS011;28351;51.480;5.706;2023-02-22T01:59:32;73.07;;;20.88;;
42714;SDS011;28351;51.480;5.706;2023-02-22T02:02:01;59.38;;;18.95;;
42714;SDS011;28351;51.480;5.706;2023-02-22T02:04:31;67.90;;;21.85;;
42714;SDS011;28351;51.480;5.706;2023-02-22T02:06:59;70.45;;;19.83;;
42714;SDS011;28351;51.480;5.706;2023-02-22T02:12:17;66.55;;;19.45;;
42714;SDS011;28351;51.480;5.706;2023-02-22T02:14:43;59.13;;;18.90;;
42714;SDS011;28351;51.480;5.706;2023-02-22T02:17:13;66.97;;;19.65;;
42714;SDS011;28351;51.480;5.706;2023-02-22T02:24:54;72.05;;;19.83;;
42714;SDS011;28351;51.480;5.706;2023-02-22T02:33:24;65.03;;;19.00;;
42714;SDS011;28351;51.480;5.706;2023-02-22T02:38:42;52.50;;;16.58;;
42714;SDS011;28351;51.480;5.706;2023-02-22T02:43:46;51.95;;;17.05;;
42714;SDS011;28351;51.480;5.706;2023-02-22T02:46:31;43.28;;;15.80;;
42714;SDS011;28351;51.480;5.706;2023-02-22T02:49:08;49.08;;;14.82;;
42714;SDS011;28351;51.480;5.706;2023-02-22T02:51:40;54.63;;;16.75;;
42714;SDS011;28351;51.480;5.706;2023-02-22T02:54:09;51.05;;;15.82;;
42714;SDS011;28351;51.480;5.706;2023-02-22T02:56:36;55.58;;;17.35;;
42714;SDS011;28351;51.480;5.706;2023-02-22T02:59:02;49.40;;;16.58;;
42714;SDS011;28351;51.480;5.706;2023-02-22T03:04:16;50.85;;;15.80;;
42714;SDS011;28351;51.480;5.706;2023-02-22T03:09:40;52.78;;;15.43;;
42714;SDS011;28351;51.480;5.706;2023-02-22T03:18:10;63.03;;;15.93;;
42714;SDS011;28351;51.480;5.706;2023-02-22T03:23:45;46.63;;;16.05;;
42714;SDS011;28351;51.480;5.706;2023-02-22T03:26:23;55.17;;;17.27;;
42714;SDS011;28351;51.480;5.706;2023-02-22T03:28:58;52.60;;;16.45;;
42714;SDS011;28351;51.480;5.706;2023-02-22T03:31:29;45.95;;;15.48;;
42714;SDS011;28351;51.480;5.706;2023-02-22T03:34:05;49.72;;;16.85;;
42714;SDS011;28351;51.480;5.706;2023-02-22T03:36:35;45.60;;;15.65;;
42714;SDS011;28351;51.480;5.706;2023-02-22T03:39:15;46.13;;;14.15;;
42714;SDS011;28351;51.480;5.706;2023-02-22T03:41:44;50.72;;;17.25;;
42714;SDS011;28351;51.480;5.706;2023-02-22T03:44:17;50.10;;;15.73;;
42714;SDS011;28351;51.480;5.706;2023-02-22T03:46:48;51.03;;;15.88;;
42714;SDS011;28351;51.480;5.706;2023-02-22T03:49:37;50.60;;;15.80;;
42714;SDS011;28351;51.480;5.706;2023-02-22T03:52:08;46.63;;;15.23;;
42714;SDS011;28351;51.480;5.706;2023-02-22T03:54:35;56.10;;;16.27;;
42714;SDS011;28351;51.480;5.706;2023-02-22T03:57:21;44.45;;;14.93;;
42714;SDS011;28351;51.480;5.706;2023-02-22T03:59:54;47.83;;;15.48;;
42714;SDS011;28351;51.480;5.706;2023-02-22T04:04:47;38.05;;;13.52;;
42714;SDS011;28351;51.480;5.706;2023-02-22T04:07:13;46.33;;;14.85;;
42714;SDS011;28351;51.480;5.706;2023-02-22T04:09:39;42.45;;;14.82;;
42714;SDS011;28351;51.480;5.706;2023-02-22T04:12:04;40.78;;;14.02;;
42714;SDS011;28351;51.480;5.706;2023-02-22T04:14:32;43.28;;;14.27;;
42714;SDS011;28351;51.480;5.706;2023-02-22T04:16:58;46.97;;;15.40;;
42714;SDS011;28351;51.480;5.706;2023-02-22T04:19:24;45.35;;;15.93;;
42714;SDS011;28351;51.480;5.706;2023-02-22T04:21:50;49.78;;;16.55;;
42714;SDS011;28351;51.480;5.706;2023-02-22T04:24:18;47.92;;;15.60;;
42714;SDS011;28351;51.480;5.706;2023-02-22T04:26:43;52.20;;;15.85;;
42714;SDS011;28351;51.480;5.706;2023-02-22T04:29:09;48.53;;;15.75;;
42714;SDS011;28351;51.480;5.706;2023-02-22T04:31:37;48.42;;;15.82;;
42714;SDS011;28351;51.480;5.706;2023-02-22T04:34:03;50.10;;;14.90;;
42714;SDS011;28351;51.480;5.706;2023-02-22T04:36:28;48.30;;;16.95;;
42714;SDS011;28351;51.480;5.706;2023-02-22T04:38:57;53.97;;;16.63;;
42714;SDS011;28351;51.480;5.706;2023-02-22T04:41:23;49.47;;;15.20;;
42714;SDS011;28351;51.480;5.706;2023-02-22T04:43:49;48.63;;;16.38;;
42714;SDS011;28351;51.480;5.706;2023-02-22T04:46:15;53.05;;;16.70;;
42714;SDS011;28351;51.480;5.706;2023-02-22T04:48:41;46.78;;;14.65;;
42714;SDS011;28351;51.480;5.706;2023-02-22T04:51:07;53.97;;;16.15;;
42714;SDS011;28351;51.480;5.706;2023-02-22T04:53:33;52.20;;;15.93;;
42714;SDS011;28351;51.480;5.706;2023-02-22T04:55:59;44.72;;;14.77;;
42714;SDS011;28351;51.480;5.706;2023-02-22T04:58:25;50.53;;;15.55;;
42714;SDS011;28351;51.480;5.706;2023-02-22T05:00:51;47.58;;;15.32;;
42714;SDS011;28351;51.480;5.706;2023-02-22T05:03:17;47.53;;;16.08;;
42714;SDS011;28351;51.480;5.706;2023-02-22T05:05:43;48.92;;;15.05;;
42714;SDS011;28351;51.480;5.706;2023-02-22T05:08:08;48.45;;;16.20;;
42714;SDS011;28351;51.480;5.706;2023-02-22T05:10:34;50.15;;;16.15;;
42714;SDS011;28351;51.480;5.706;2023-02-22T05:12:59;50.03;;;16.83;;
42714;SDS011;28351;51.480;5.706;2023-02-22T05:15:30;52.90;;;16.90;;
42714;SDS011;28351;51.480;5.706;2023-02-22T05:17:56;53.17;;;16.30;;
42714;SDS011;28351;51.480;5.706;2023-02-22T05:20:24;56.47;;;17.65;;
42714;SDS011;28351;51.480;5.706;2023-02-22T05:22:57;45.65;;;16.70;;
42714;SDS011;28351;51.480;5.706;2023-02-22T05:25:24;43.97;;;15.98;;
42714;SDS011;28351;51.480;5.706;2023-02-22T05:27:51;49.22;;;16.02;;
42714;SDS011;28351;51.480;5.706;2023-02-22T05:30:19;52.83;;;17.15;;
42714;SDS011;28351;51.480;5.706;2023-02-22T05:32:47;57.85;;;18.40;;
42714;SDS011;28351;51.480;5.706;2023-02-22T05:35:13;57.03;;;17.33;;
42714;SDS011;28351;51.480;5.706;2023-02-22T05:37:45;51.22;;;17.15;;
42714;SDS011;28351;51.480;5.706;2023-02-22T05:40:11;52.95;;;18.35;;
42714;SDS011;28351;51.480;5.706;2023-02-22T05:42:38;48.97;;;17.17;;
42714;SDS011;28351;51.480;5.706;2023-02-22T05:45:13;53.85;;;17.17;;
42714;SDS011;28351;51.480;5.706;2023-02-22T05:47:40;54.35;;;17.15;;
42714;SDS011;28351;51.480;5.706;2023-02-22T05:50:05;46.75;;;16.80;;
42714;SDS011;28351;51.480;5.706;2023-02-22T05:52:32;63.10;;;20.00;;
42714;SDS011;28351;51.480;5.706;2023-02-22T05:54:57;51.97;;;16.52;;
42714;SDS011;28351;51.480;5.706;2023-02-22T05:57:23;47.30;;;16.23;;
42714;SDS011;28351;51.480;5.706;2023-02-22T06:02:17;48.85;;;16.23;;
42714;SDS011;28351;51.480;5.706;2023-02-22T06:04:43;51.40;;;15.75;;
42714;SDS011;28351;51.480;5.706;2023-02-22T06:07:09;46.22;;;16.50;;
42714;SDS011;28351;51.480;5.706;2023-02-22T06:09:35;57.10;;;16.42;;
42714;SDS011;28351;51.480;5.706;2023-02-22T06:12:00;51.60;;;15.10;;
42714;SDS011;28351;51.480;5.706;2023-02-22T06:14:26;47.20;;;16.40;;
42714;SDS011;28351;51.480;5.706;2023-02-22T06:16:52;50.08;;;15.88;;
42714;SDS011;28351;51.480;5.706;2023-02-22T06:19:19;48.40;;;13.90;;
42714;SDS011;28351;51.480;5.706;2023-02-22T06:21:48;48.53;;;15.80;;
42714;SDS011;28351;51.480;5.706;2023-02-22T06:24:15;45.42;;;14.50;;
42714;SDS011;28351;51.480;5.706;2023-02-22T06:26:41;47.35;;;16.05;;
42714;SDS011;28351;51.480;5.706;2023-02-22T06:29:06;49.85;;;16.33;;
42714;SDS011;28351;51.480;5.706;2023-02-22T06:31:32;48.50;;;15.80;;
42714;SDS011;28351;51.480;5.706;2023-02-22T06:33:58;47.22;;;15.00;;
42714;SDS011;28351;51.480;5.706;2023-02-22T06:36:23;47.70;;;15.82;;
42714;SDS011;28351;51.480;5.706;2023-02-22T06:38:49;51.08;;;16.10;;
42714;SDS011;28351;51.480;5.706;2023-02-22T06:41:15;49.65;;;16.75;;
42714;SDS011;28351;51.480;5.706;2023-02-22T06:43:40;56.60;;;17.63;;
42714;SDS011;28351;51.480;5.706;2023-02-22T06:46:09;48.75;;;16.05;;
42714;SDS011;28351;51.480;5.706;2023-02-22T06:48:36;57.47;;;17.38;;
42714;SDS011;28351;51.480;5.706;2023-02-22T06:51:03;56.00;;;16.45;;
42714;SDS011;28351;51.480;5.706;2023-02-22T06:53:29;53.05;;;16.77;;
42714;SDS011;28351;51.480;5.706;2023-02-22T06:55:54;48.15;;;15.73;;
42714;SDS011;28351;51.480;5.706;2023-02-22T06:58:20;46.40;;;15.38;;
42714;SDS011;28351;51.480;5.706;2023-02-22T07:00:45;48.08;;;14.93;;
42714;SDS011;28351;51.480;5.706;2023-02-22T07:03:11;47.50;;;14.70;;
42714;SDS011;28351;51.480;5.706;2023-02-22T07:05:38;51.53;;;14.57;;
42714;SDS011;28351;51.480;5.706;2023-02-22T07:08:04;54.30;;;17.10;;
42714;SDS011;28351;51.480;5.706;2023-02-22T07:10:32;55.97;;;15.73;;
42714;SDS011;28351;51.480;5.706;2023-02-22T07:12:59;44.08;;;13.85;;
42714;SDS011;28351;51.480;5.706;2023-02-22T07:15:25;47.85;;;15.05;;
42714;SDS011;28351;51.480;5.706;2023-02-22T07:17:52;45.42;;;14.02;;
42714;SDS011;28351;51.480;5.706;2023-02-22T07:20:18;41.40;;;13.65;;
42714;SDS011;28351;51.480;5.706;2023-02-22T07:22:45;42.40;;;14.23;;
42714;SDS011;28351;51.480;5.706;2023-02-22T07:25:12;43.50;;;14.93;;
42714;SDS011;28351;51.480;5.706;2023-02-22T07:27:38;47.38;;;15.93;;
42714;SDS011;28351;51.480;5.706;2023-02-22T07:32:58;54.55;;;17.17;;
42714;SDS011;28351;51.480;5.706;2023-02-22T07:35:28;49.22;;;15.73;;
42714;SDS011;28351;51.480;5.706;2023-02-22T07:37:55;61.63;;;17.35;;
42714;SDS011;28351;51.480;5.706;2023-02-22T07:40:22;56.72;;;16.77;;
42714;SDS011;28351;51.480;5.706;2023-02-22T07:42:52;51.97;;;17.20;;
42714;SDS011;28351;51.480;5.706;2023-02-22T07:45:26;58.15;;;18.48;;
42714;SDS011;28351;51.480;5.706;2023-02-22T07:47:57;57.90;;;18.70;;
42714;SDS011;28351;51.480;5.706;2023-02-22T07:50:25;66.32;;;19.92;;
42714;SDS011;28351;51.480;5.706;2023-02-22T07:52:54;65.07;;;18.88;;
42714;SDS011;28351;51.480;5.706;2023-02-22T07:55:23;64.75;;;20.40;;
42714;SDS011;28351;51.480;5.706;2023-02-22T07:57:51;62.33;;;20.83;;
42714;SDS011;28351;51.480;5.706;2023-02-22T08:00:22;56.58;;;18.42;;
42714;SDS011;28351;51.480;5.706;2023-02-22T08:02:51;66.95;;;19.90;;
42714;SDS011;28351;51.480;5.706;2023-02-22T08:05:17;61.80;;;19.13;;
42714;SDS011;28351;51.480;5.706;2023-02-22T08:07:44;64.82;;;19.08;;
42714;SDS011;28351;51.480;5.706;2023-02-22T08:10:10;62.95;;;19.23;;
42714;SDS011;28351;51.480;5.706;2023-02-22T08:15:05;53.13;;;17.88;;
42714;SDS011;28351;51.480;5.706;2023-02-22T08:19:58;60.20;;;18.67;;
42714;SDS011;28351;51.480;5.706;2023-02-22T08:22:24;58.63;;;19.73;;
42714;SDS011;28351;51.480;5.706;2023-02-22T08:24:52;56.42;;;18.25;;
42714;SDS011;28351;51.480;5.706;2023-02-22T08:27:24;54.95;;;19.02;;
42714;SDS011;28351;51.480;5.706;2023-02-22T08:29:51;56.20;;;17.65;;
42714;SDS011;28351;51.480;5.706;2023-02-22T08:32:17;50.78;;;18.10;;
42714;SDS011;28351;51.480;5.706;2023-02-22T08:34:44;52.17;;;18.40;;
42714;SDS011;28351;51.480;5.706;2023-02-22T08:37:10;45.30;;;18.33;;
42714;SDS011;28351;51.480;5.706;2023-02-22T08:39:36;47.90;;;17.15;;
42714;SDS011;28351;51.480;5.706;2023-02-22T08:42:02;46.00;;;17.73;;
42714;SDS011;28351;51.480;5.706;2023-02-22T08:44:30;46.33;;;17.15;;
42714;SDS011;28351;51.480;5.706;2023-02-22T08:46:55;39.53;;;15.07;;
42714;SDS011;28351;51.480;5.706;2023-02-22T08:49:22;48.72;;;16.25;;
42714;SDS011;28351;51.480;5.706;2023-02-22T08:51:48;41.25;;;16.00;;
42714;SDS011;28351;51.480;5.706;2023-02-22T08:54:13;39.38;;;15.00;;
42714;SDS011;28351;51.480;5.706;2023-02-22T08:56:51;44.85;;;16.65;;
42714;SDS011;28351;51.480;5.706;2023-02-22T08:59:16;46.88;;;16.50;;
42714;SDS011;28351;51.480;5.706;2023-02-22T09:01:42;42.13;;;16.40;;
42714;SDS011;28351;51.480;5.706;2023-02-22T09:04:08;46.60;;;16.38;;
42714;SDS011;28351;51.480;5.706;2023-02-22T09:06:33;41.63;;;16.83;;
42714;SDS011;28351;51.480;5.706;2023-02-22T09:08:59;42.45;;;16.35;;
42714;SDS011;28351;51.480;5.706;2023-02-22T09:11:25;45.00;;;15.98;;
42714;SDS011;28351;51.480;5.706;2023-02-22T09:13:51;50.70;;;18.15;;
42714;SDS011;28351;51.480;5.706;2023-02-22T09:16:16;44.33;;;16.30;;
42714;SDS011;28351;51.480;5.706;2023-02-22T09:18:42;38.13;;;16.67;;
42714;SDS011;28351;51.480;5.706;2023-02-22T09:21:07;44.03;;;17.00;;
42714;SDS011;28351;51.480;5.706;2023-02-22T09:23:33;40.28;;;15.52;;
42714;SDS011;28351;51.480;5.706;2023-02-22T09:25:59;37.05;;;14.82;;
42714;SDS011;28351;51.480;5.706;2023-02-22T09:28:25;36.10;;;15.80;;
42714;SDS011;28351;51.480;5.706;2023-02-22T09:30:51;36.30;;;15.65;;
42714;SDS011;28351;51.480;5.706;2023-02-22T09:33:18;37.88;;;15.18;;
42714;SDS011;28351;51.480;5.706;2023-02-22T09:35:45;37.38;;;15.20;;
42714;SDS011;28351;51.480;5.706;2023-02-22T09:38:16;32.75;;;13.90;;
42714;SDS011;28351;51.480;5.706;2023-02-22T09:40:51;37.50;;;15.27;;
42714;SDS011;28351;51.480;5.706;2023-02-22T09:48:58;31.10;;;13.95;;
42714;SDS011;28351;51.480;5.706;2023-02-22T09:54:30;31.88;;;14.52;;
42714;SDS011;28351;51.480;5.706;2023-02-22T09:57:04;33.13;;;14.48;;
42714;SDS011;28351;51.480;5.706;2023-02-22T09:59:41;28.75;;;14.15;;
42714;SDS011;28351;51.480;5.706;2023-02-22T10:02:26;30.02;;;13.93;;
42714;SDS011;28351;51.480;5.706;2023-02-22T10:05:02;29.95;;;14.65;;
42714;SDS011;28351;51.480;5.706;2023-02-22T10:07:33;24.17;;;11.57;;
42714;SDS011;28351;51.480;5.706;2023-02-22T10:10:03;23.60;;;10.85;;
42714;SDS011;28351;51.480;5.706;2023-02-22T10:18:03;24.90;;;12.60;;
42714;SDS011;28351;51.480;5.706;2023-02-22T10:23:32;27.10;;;13.35;;
42714;SDS011;28351;51.480;5.706;2023-02-22T10:28:46;22.75;;;11.57;;
42714;SDS011;28351;51.480;5.706;2023-02-22T10:31:20;18.17;;;10.07;;
42714;SDS011;28351;51.480;5.706;2023-02-22T10:33:54;19.92;;;9.95;;
42714;SDS011;28351;51.480;5.706;2023-02-22T10:36:23;22.42;;;9.40;;
42714;SDS011;28351;51.480;5.706;2023-02-22T10:39:52;21.90;;;10.85;;
42714;SDS011;28351;51.480;5.706;2023-02-22T10:41:55;20.83;;;10.60;;
42714;SDS011;28351;51.480;5.706;2023-02-22T10:44:29;19.38;;;10.50;;
42714;SDS011;28351;51.480;5.706;2023-02-22T10:46:57;19.98;;;10.48;;
42714;SDS011;28351;51.480;5.706;2023-02-22T10:49:29;19.25;;;10.05;;
42714;SDS011;28351;51.480;5.706;2023-02-22T10:52:32;16.92;;;9.90;;
42714;SDS011;28351;51.480;5.706;2023-02-22T10:55:20;16.88;;;8.98;;
42714;SDS011;28351;51.480;5.706;2023-02-22T10:57:50;16.60;;;9.77;;
42714;SDS011;28351;51.480;5.706;2023-02-22T11:00:38;18.90;;;8.90;;
42714;SDS011;28351;51.480;5.706;2023-02-22T11:05:43;17.60;;;10.25;;
42714;SDS011;28351;51.480;5.706;2023-02-22T11:08:21;21.10;;;9.60;;
42714;SDS011;28351;51.480;5.706;2023-02-22T11:10:51;19.33;;;10.07;;
42714;SDS011;28351;51.480;5.706;2023-02-22T11:13:26;22.42;;;10.82;;
42714;SDS011;28351;51.480;5.706;2023-02-22T11:15:58;18.30;;;10.80;;
42714;SDS011;28351;51.480;5.706;2023-02-22T11:18:28;19.30;;;9.93;;
42714;SDS011;28351;51.480;5.706;2023-02-22T11:21:00;19.98;;;10.57;;
42714;SDS011;28351;51.480;5.706;2023-02-22T11:23:29;18.83;;;10.45;;
42714;SDS011;28351;51.480;5.706;2023-02-22T11:26:06;20.67;;;11.00;;
42714;SDS011;28351;51.480;5.706;2023-02-22T11:28:33;23.48;;;11.07;;
42714;SDS011;28351;51.480;5.706;2023-02-22T11:31:09;22.98;;;11.20;;
42714;SDS011;28351;51.480;5.706;2023-02-22T11:36:27;21.90;;;12.07;;
42714;SDS011;28351;51.480;5.706;2023-02-22T11:39:02;27.55;;;13.23;;
42714;SDS011;28351;51.480;5.706;2023-02-22T11:41:30;26.98;;;13.52;;
42714;SDS011;28351;51.480;5.706;2023-02-22T11:44:43;24.63;;;12.77;;
42714;SDS011;28351;51.480;5.706;2023-02-22T11:46:48;23.33;;;12.13;;
42714;SDS011;28351;51.480;5.706;2023-02-22T11:49:18;23.65;;;12.45;;
42714;SDS011;28351;51.480;5.706;2023-02-22T11:52:05;22.40;;;11.73;;
42714;SDS011;28351;51.480;5.706;2023-02-22T12:00:14;15.32;;;9.57;;
42714;SDS011;28351;51.480;5.706;2023-02-22T12:08:56;15.20;;;8.93;;
42714;SDS011;28351;51.480;5.706;2023-02-22T12:14:16;16.50;;;9.60;;
42714;SDS011;28351;51.480;5.706;2023-02-22T12:19:59;15.30;;;8.65;;
42714;SDS011;28351;51.480;5.706;2023-02-22T12:25:37;15.60;;;9.38;;
42714;SDS011;28351;51.480;5.706;2023-02-22T12:30:48;16.35;;;9.60;;
42714;SDS011;28351;51.480;5.706;2023-02-22T12:33:30;11.40;;;8.00;;
42714;SDS011;28351;51.480;5.706;2023-02-22T12:36:24;15.27;;;8.60;;
42714;SDS011;28351;51.480;5.706;2023-02-22T12:38:57;17.58;;;8.77;;
42714;SDS011;28351;51.480;5.706;2023-02-22T12:41:34;15.02;;;9.48;;
42714;SDS011;28351;51.480;5.706;2023-02-22T12:44:13;13.32;;;8.27;;
42714;SDS011;28351;51.480;5.706;2023-02-22T12:46:51;15.18;;;8.38;;
42714;SDS011;28351;51.480;5.706;2023-02-22T12:55:20;16.50;;;9.55;;
42714;SDS011;28351;51.480;5.706;2023-02-22T13:00:49;14.63;;;8.90;;
42714;SDS011;28351;51.480;5.706;2023-02-22T13:03:32;16.27;;;9.30;;
42714;SDS011;28351;51.480;5.706;2023-02-22T13:09:05;15.50;;;8.60;;
42714;SDS011;28351;51.480;5.706;2023-02-22T13:14:39;17.27;;;9.38;;
42714;SDS011;28351;51.480;5.706;2023-02-22T13:22:36;16.70;;;8.93;;
42714;SDS011;28351;51.480;5.706;2023-02-22T13:27:59;18.13;;;9.80;;
42714;SDS011;28351;51.480;5.706;2023-02-22T13:30:43;16.58;;;9.75;;
42714;SDS011;28351;51.480;5.706;2023-02-22T13:33:37;14.75;;;9.27;;
42714;SDS011;28351;51.480;5.706;2023-02-22T13:44:48;15.77;;;9.60;;
42714;SDS011;28351;51.480;5.706;2023-02-22T13:52:54;16.90;;;10.02;;
42714;SDS011;28351;51.480;5.706;2023-02-22T13:55:25;18.00;;;10.73;;
42714;SDS011;28351;51.480;5.706;2023-02-22T13:58:08;18.02;;;10.50;;
42714;SDS011;28351;51.480;5.706;2023-02-22T14:00:46;22.38;;;10.98;;
42714;SDS011;28351;51.480;5.706;2023-02-22T14:05:48;17.60;;;11.25;;
42714;SDS011;28351;51.480;5.706;2023-02-22T14:10:58;19.92;;;12.25;;
42714;SDS011;28351;51.480;5.706;2023-02-22T14:14:08;24.75;;;12.98;;
42714;SDS011;28351;51.480;5.706;2023-02-22T14:16:27;19.17;;;11.85;;
42714;SDS011;28351;51.480;5.706;2023-02-22T14:19:13;24.77;;;12.80;;
42714;SDS011;28351;51.480;5.706;2023-02-22T14:21:57;20.98;;;11.70;;
42714;SDS011;28351;51.480;5.706;2023-02-22T14:24:26;28.30;;;13.43;;
42714;SDS011;28351;51.480;5.706;2023-02-22T14:27:13;21.58;;;13.05;;
42714;SDS011;28351;51.480;5.706;2023-02-22T14:29:52;22.38;;;12.52;;
42714;SDS011;28351;51.480;5.706;2023-02-22T14:32:28;21.85;;;12.93;;
42714;SDS011;28351;51.480;5.706;2023-02-22T14:34:59;23.60;;;13.18;;
42714;SDS011;28351;51.480;5.706;2023-02-22T14:37:35;25.35;;;12.75;;
42714;SDS011;28351;51.480;5.706;2023-02-22T14:40:18;25.30;;;13.63;;
42714;SDS011;28351;51.480;5.706;2023-02-22T14:43:03;24.30;;;12.88;;
42714;SDS011;28351;51.480;5.706;2023-02-22T14:45:35;27.30;;;13.50;;
42714;SDS011;28351;51.480;5.706;2023-02-22T14:50:52;26.38;;;15.23;;
42714;SDS011;28351;51.480;5.706;2023-02-22T14:56:06;27.80;;;15.45;;
42714;SDS011;28351;51.480;5.706;2023-02-22T14:58:42;27.58;;;15.30;;
42714;SDS011;28351;51.480;5.706;2023-02-22T15:03:55;25.17;;;15.25;;
42714;SDS011;28351;51.480;5.706;2023-02-22T15:06:24;28.27;;;17.13;;
42714;SDS011;28351;51.480;5.706;2023-02-22T15:09:12;27.67;;;16.50;;
42714;SDS011;28351;51.480;5.706;2023-02-22T15:11:53;29.83;;;16.63;;
42714;SDS011;28351;51.480;5.706;2023-02-22T15:14:36;30.38;;;16.33;;
42714;SDS011;28351;51.480;5.706;2023-02-22T15:17:05;29.08;;;15.57;;
42714;SDS011;28351;51.480;5.706;2023-02-22T15:19:33;30.77;;;17.33;;
42714;SDS011;28351;51.480;5.706;2023-02-22T15:22:03;28.58;;;16.98;;
42714;SDS011;28351;51.480;5.706;2023-02-22T15:24:33;33.47;;;17.70;;
42714;SDS011;28351;51.480;5.706;2023-02-22T15:27:04;34.65;;;18.55;;
42714;SDS011;28351;51.480;5.706;2023-02-22T15:29:35;30.25;;;17.25;;
42714;SDS011;28351;51.480;5.706;2023-02-22T15:32:16;34.28;;;18.25;;
42714;SDS011;28351;51.480;5.706;2023-02-22T15:37:40;29.73;;;16.52;;
42714;SDS011;28351;51.480;5.706;2023-02-22T15:40:12;35.47;;;17.65;;
42714;SDS011;28351;51.480;5.706;2023-02-22T15:42:44;34.03;;;17.65;;
42714;SDS011;28351;51.480;5.706;2023-02-22T15:45:17;26.40;;;16.35;;
42714;SDS011;28351;51.480;5.706;2023-02-22T15:47:47;30.65;;;16.45;;
42714;SDS011;28351;51.480;5.706;2023-02-22T15:50:24;28.05;;;16.95;;
42714;SDS011;28351;51.480;5.706;2023-02-22T15:52:55;31.77;;;17.40;;
42714;SDS011;28351;51.480;5.706;2023-02-22T15:55:41;30.92;;;16.40;;
42714;SDS011;28351;51.480;5.706;2023-02-22T16:00:43;32.10;;;16.83;;
42714;SDS011;28351;51.480;5.706;2023-02-22T16:03:14;29.02;;;15.98;;
42714;SDS011;28351;51.480;5.706;2023-02-22T16:05:44;26.83;;;15.85;;
42714;SDS011;28351;51.480;5.706;2023-02-22T16:08:15;31.38;;;16.73;;
42714;SDS011;28351;51.480;5.706;2023-02-22T16:11:07;31.30;;;16.50;;
42714;SDS011;28351;51.480;5.706;2023-02-22T16:13:37;31.27;;;16.55;;
42714;SDS011;28351;51.480;5.706;2023-02-22T16:18:46;29.60;;;16.50;;
42714;SDS011;28351;51.480;5.706;2023-02-22T16:21:13;33.53;;;17.23;;
42714;SDS011;28351;51.480;5.706;2023-02-22T16:23:51;30.88;;;16.83;;
42714;SDS011;28351;51.480;5.706;2023-02-22T16:28:55;29.38;;;16.08;;
42714;SDS011;28351;51.480;5.706;2023-02-22T16:31:24;27.42;;;15.63;;
42714;SDS011;28351;51.480;5.706;2023-02-22T16:33:59;25.92;;;15.40;;
42714;SDS011;28351;51.480;5.706;2023-02-22T16:36:39;30.38;;;16.55;;
42714;SDS011;28351;51.480;5.706;2023-02-22T16:39:10;32.58;;;16.08;;
42714;SDS011;28351;51.480;5.706;2023-02-22T16:41:42;34.10;;;17.40;;
42714;SDS011;28351;51.480;5.706;2023-02-22T16:44:08;30.55;;;15.52;;
42714;SDS011;28351;51.480;5.706;2023-02-22T16:46:36;29.23;;;16.80;;
42714;SDS011;28351;51.480;5.706;2023-02-22T16:49:02;28.77;;;15.80;;
42714;SDS011;28351;51.480;5.706;2023-02-22T16:51:31;29.77;;;16.88;;
42714;SDS011;28351;51.480;5.706;2023-02-22T16:54:04;32.88;;;16.75;;
42714;SDS011;28351;51.480;5.706;2023-02-22T16:56:36;31.60;;;17.25;;
42714;SDS011;28351;51.480;5.706;2023-02-22T16:59:06;33.55;;;17.25;;
42714;SDS011;28351;51.480;5.706;2023-02-22T17:01:35;33.63;;;17.70;;
42714;SDS011;28351;51.480;5.706;2023-02-22T17:04:00;33.72;;;17.83;;
42714;SDS011;28351;51.480;5.706;2023-02-22T17:06:26;34.20;;;18.13;;
42714;SDS011;28351;51.480;5.706;2023-02-22T17:08:53;34.03;;;18.63;;
42714;SDS011;28351;51.480;5.706;2023-02-22T17:11:18;31.60;;;17.80;;
42714;SDS011;28351;51.480;5.706;2023-02-22T17:13:45;32.90;;;17.33;;
42714;SDS011;28351;51.480;5.706;2023-02-22T17:16:15;36.15;;;18.25;;
42714;SDS011;28351;51.480;5.706;2023-02-22T17:18:41;35.25;;;19.15;;